createdAt,value
2019-03-22T00:05:30.501Z,6.73
2019-03-22T00:12:15.354Z,7.27
2019-03-22T00:19:00.297Z,6.40
2019-03-22T00:25:45.251Z,6.47
2019-03-22T00:32:30.111Z,6.97
2019-03-22T00:39:14.966Z,6.93
2019-03-22T00:46:02.581Z,6.30
2019-03-22T00:52:47.230Z,6.80
2019-03-22T00:59:32.115Z,7.37
2019-03-22T01:06:17.062Z,6.60
2019-03-22T01:13:02.891Z,6.67
2019-03-22T01:19:48.124Z,7.03
2019-03-22T01:26:34.114Z,6.60
2019-03-22T01:33:19.067Z,7.03
2019-03-22T01:40:09.850Z,7.87
2019-03-22T01:46:54.754Z,7.20
2019-03-22T01:53:39.614Z,6.97
2019-03-22T02:00:24.557Z,8.00
2019-03-22T02:07:09.687Z,8.10
2019-03-22T02:13:54.542Z,8.03
2019-03-22T02:20:40.559Z,7.17
2019-03-22T02:27:26.524Z,7.20
2019-03-22T02:34:11.572Z,7.57
2019-03-22T02:40:56.424Z,7.23
2019-03-22T02:47:41.283Z,8.17
2019-03-22T02:54:27.705Z,7.60
2019-03-22T03:01:12.656Z,6.97
2019-03-22T03:07:57.515Z,7.50
2019-03-22T03:14:42.363Z,8.40
2019-03-22T03:21:30.103Z,7.30
2019-03-22T03:28:14.974Z,8.73
2019-03-22T03:34:59.893Z,8.73
2019-03-22T03:41:45.007Z,8.17
2019-03-22T03:48:30.119Z,8.67
2019-03-22T03:55:15.259Z,9.67
2019-03-22T04:02:00.205Z,8.43
2019-03-22T04:08:46.718Z,9.10
2019-03-22T04:15:31.796Z,8.83
2019-03-22T04:22:16.755Z,8.87
2019-03-22T04:29:08.000Z,9.57
2019-03-22T04:35:48.377Z,8.90
2019-03-22T04:42:33.311Z,9.70
2019-03-22T04:49:21.707Z,9.80
2019-03-22T04:56:09.674Z,9.10
2019-03-22T05:02:55.279Z,8.53
2019-03-22T05:09:43.018Z,9.43
2019-03-22T05:16:28.988Z,10.70
2019-03-22T05:23:15.987Z,11.43
2019-03-22T05:30:02.709Z,10.30
2019-03-22T05:36:47.644Z,10.80
2019-03-22T05:43:32.643Z,11.50
2019-03-22T05:50:17.508Z,11.83
2019-03-22T05:57:12.805Z,10.60
2019-03-22T06:03:49.042Z,9.83
2019-03-22T06:10:33.914Z,10.80
2019-03-22T06:17:18.876Z,10.75
2019-03-22T06:24:03.898Z,10.40
2019-03-22T06:30:48.758Z,10.30
2019-03-22T06:37:33.615Z,9.27
2019-03-22T06:44:18.472Z,9.37
2019-03-22T06:51:03.386Z,8.50
2019-03-22T06:57:48.252Z,8.08
2019-03-22T07:04:33.119Z,8.58
2019-03-22T07:11:17.983Z,8.10
2019-03-22T07:18:02.930Z,8.07
2019-03-22T07:24:48.298Z,8.65
2019-03-22T07:31:35.734Z,9.65
2019-03-22T07:38:19.843Z,9.38
2019-03-22T07:45:06.327Z,8.65
2019-03-22T07:51:51.863Z,8.88
2019-03-22T07:58:36.731Z,9.13
2019-03-22T08:05:21.811Z,9.25
2019-03-22T08:12:06.766Z,9.67
2019-03-22T08:18:51.715Z,9.50
2019-03-22T08:25:36.730Z,9.65
2019-03-22T08:32:21.675Z,9.28
2019-03-22T08:39:08.556Z,9.23
2019-03-22T08:45:53.503Z,9.45
2019-03-22T08:52:38.439Z,10.10
2019-03-22T08:59:24.383Z,10.15
2019-03-22T09:06:09.328Z,10.82
2019-03-22T09:12:54.462Z,11.10
2019-03-22T09:19:39.406Z,11.78
2019-03-22T09:26:24.359Z,11.65
2019-03-22T09:33:09.288Z,12.05
2019-03-22T09:39:54.456Z,13.13
2019-03-22T09:46:39.370Z,11.78
2019-03-22T09:53:24.294Z,12.93
2019-03-22T10:00:12.347Z,11.90
2019-03-22T10:06:57.290Z,12.10
2019-03-22T10:13:42.349Z,13.03
2019-03-22T10:20:27.246Z,12.37
2019-03-22T10:27:12.201Z,11.97
2019-03-22T10:33:57.766Z,12.63
2019-03-22T10:40:42.975Z,13.20
2019-03-22T10:47:28.103Z,12.60
2019-03-22T10:54:13.043Z,11.12
2019-03-22T11:00:57.991Z,11.30
2019-03-22T11:07:42.931Z,10.68
2019-03-22T11:14:27.802Z,9.65
2019-03-22T11:21:12.680Z,9.35
2019-03-22T11:27:57.580Z,9.00
2019-03-22T11:34:43.166Z,10.05
2019-03-22T11:41:28.163Z,8.25
2019-03-22T11:48:13.191Z,8.98
2019-03-22T11:54:58.668Z,7.17
2019-03-22T12:01:44.210Z,8.05
2019-03-22T12:08:30.271Z,7.75
2019-03-22T12:15:21.046Z,8.97
2019-03-22T12:22:07.271Z,8.40
2019-03-22T12:28:53.106Z,9.45
2019-03-22T12:35:40.102Z,8.48
2019-03-22T12:42:25.092Z,8.40
2019-03-22T12:49:10.400Z,8.78
2019-03-22T12:55:55.480Z,8.10
2019-03-22T13:02:42.436Z,8.13
2019-03-22T13:09:27.204Z,7.87
2019-03-22T13:16:12.079Z,8.45
2019-03-22T13:22:57.399Z,8.00
2019-03-22T13:29:42.475Z,7.65
2019-03-22T13:36:27.487Z,5.60
2019-03-22T13:43:14.027Z,5.62
2019-03-22T13:49:58.946Z,9.48
2019-03-22T13:56:43.931Z,7.22
2019-03-22T14:03:29.076Z,13.40
2019-03-22T14:10:33.623Z,8.98
2019-03-22T14:17:18.638Z,8.18
2019-03-22T14:24:06.037Z,8.73
2019-03-22T14:30:50.242Z,7.58
2019-03-22T14:37:37.315Z,8.45
2019-03-22T14:44:25.483Z,9.08
2019-03-22T14:51:09.518Z,7.85
2019-03-22T14:57:54.550Z,7.72
2019-03-22T15:04:42.282Z,6.45
2019-03-22T15:11:27.159Z,6.30
2019-03-22T15:18:19.523Z,6.03
2019-03-22T15:25:20.215Z,6.60
2019-03-22T15:32:06.781Z,5.30
2019-03-22T15:39:08.362Z,6.05
2019-03-22T15:45:53.508Z,6.05
2019-03-22T15:52:38.504Z,5.92
2019-03-22T15:59:25.536Z,7.05
2019-03-22T16:06:11.018Z,6.47
2019-03-22T16:12:55.977Z,7.50
2019-03-22T16:19:40.859Z,8.50
2019-03-22T16:26:25.800Z,9.03
2019-03-22T16:33:10.771Z,8.68
2019-03-22T16:39:55.769Z,9.90
2019-03-22T16:46:40.716Z,10.10
2019-03-22T16:53:25.600Z,10.08
2019-03-22T17:00:11.675Z,9.73
2019-03-22T17:06:56.622Z,11.23
2019-03-22T17:13:41.571Z,10.40
2019-03-22T17:20:26.508Z,11.00
2019-03-22T17:27:13.130Z,9.87
2019-03-22T17:33:58.065Z,10.50
2019-03-22T17:40:42.946Z,11.83
2019-03-22T17:47:27.897Z,11.13
2019-03-22T17:54:12.768Z,11.07
2019-03-22T18:00:57.804Z,11.63
2019-03-22T18:07:42.743Z,10.57
2019-03-22T18:14:28.686Z,11.40
2019-03-22T18:21:13.811Z,10.23
2019-03-22T18:27:58.684Z,11.63
2019-03-22T18:34:43.555Z,11.23
2019-03-22T18:41:28.422Z,12.40
2019-03-22T18:48:13.507Z,13.20
2019-03-22T18:54:58.435Z,13.20
2019-03-22T19:01:43.373Z,13.20
2019-03-22T19:08:29.282Z,13.30
2019-03-22T19:15:15.058Z,13.03
2019-03-22T19:21:59.921Z,14.00
2019-03-22T19:28:44.786Z,13.47
2019-03-22T19:35:30.721Z,13.80
2019-03-22T19:42:15.664Z,15.67
2019-03-22T19:49:00.602Z,14.60
2019-03-22T19:55:45.932Z,16.00
2019-03-22T20:02:31.265Z,17.33
2019-03-22T20:09:17.395Z,15.23
2019-03-22T20:16:02.383Z,15.75
2019-03-22T20:22:47.328Z,15.90
2019-03-22T20:29:32.267Z,16.70
2019-03-22T20:36:18.306Z,15.97
2019-03-22T20:43:03.232Z,15.95
2019-03-22T20:49:48.298Z,17.50
2019-03-22T20:56:33.159Z,17.13
2019-03-22T21:03:18.035Z,16.73
2019-03-22T21:10:03.248Z,17.47
2019-03-22T21:16:48.170Z,18.00
2019-03-22T21:23:36.620Z,18.90
2019-03-22T21:30:22.436Z,17.17
2019-03-22T21:37:07.651Z,18.00
2019-03-22T21:43:52.714Z,17.77
2019-03-22T21:50:37.681Z,16.67
2019-03-22T21:57:22.835Z,17.40
2019-03-22T22:04:08.362Z,20.23
2019-03-22T22:10:59.658Z,18.90
2019-03-22T22:17:41.471Z,19.93
2019-03-22T22:24:26.331Z,19.00
2019-03-22T22:31:12.734Z,18.77
2019-03-22T22:37:57.866Z,18.20
2019-03-22T22:44:42.736Z,20.17
2019-03-22T22:51:27.703Z,20.87
2019-03-22T22:58:13.311Z,20.17
2019-03-22T23:04:58.842Z,17.90
2019-03-22T23:11:44.378Z,22.00
2019-03-22T23:18:29.306Z,20.60
2019-03-22T23:25:15.605Z,19.87
2019-03-22T23:32:00.526Z,18.97
2019-03-22T23:38:45.391Z,20.00
2019-03-22T23:45:30.247Z,17.83
2019-03-22T23:52:15.175Z,19.00
2019-03-22T23:59:00.034Z,18.83
